Time;durP1;ratioP1;P1;durP2;ratioP2;P2;SDS_P1;SDS_P2;PMS_P1;PMS_P2;Temp;Humidity;BMP_temperature;BMP_pressure;BME280_temperature;BME280_humidity;BME280_pressure;Samples;Min_cycle;Max_cycle;Signal;HPM_P1;HPM_P2
2022/10/07 00:01:49;;;;;;;4.03;0.80;;;;;;;7.00;100.00;101547.13;5042388;28;20488;-55
2022/10/07 00:04:15;;;;;;;8.93;1.23;;;;;;;6.91;100.00;101540.91;5044449;28;20829;-54
2022/10/07 00:06:42;;;;;;;0.80;0.60;;;;;;;7.01;100.00;101534.81;5039692;28;20536;-56
2022/10/07 00:09:08;;;;;;;0.50;0.40;;;;;;;6.99;100.00;101536.53;5037581;28;20487;-54
2022/10/07 00:11:35;;;;;;;0.60;0.50;;;;;;;7.02;100.00;101537.44;5039229;28;20494;-54
2022/10/07 00:14:03;;;;;;;0.63;0.63;;;;;;;6.98;100.00;101532.13;5033016;28;20519;-54
2022/10/07 00:16:33;;;;;;;2.07;1.40;;;;;;;6.97;100.00;101525.94;5041373;28;20507;-54
2022/10/07 00:19:02;;;;;;;0.67;0.60;;;;;;;7.02;100.00;101523.34;5046856;28;20808;-54
2022/10/07 00:21:30;;;;;;;2.73;0.80;;;;;;;6.98;100.00;101519.78;5043636;28;20491;-54
2022/10/07 00:23:57;;;;;;;1.30;0.80;;;;;;;7.08;100.00;101512.78;5037068;28;20474;-54
2022/10/07 00:26:26;;;;;;;3.43;0.83;;;;;;;7.11;100.00;101518.97;5040388;28;20503;-55
2022/10/07 00:28:52;;;;;;;0.43;0.27;;;;;;;6.94;100.00;101512.72;5044301;28;20451;-54
2022/10/07 00:31:22;;;;;;;0.60;0.53;;;;;;;6.77;100.00;101509.97;5041202;28;21006;-54
2022/10/07 00:33:49;;;;;;;8.33;0.80;;;;;;;6.84;100.00;101508.25;5037061;28;21051;-54
2022/10/07 00:36:19;;;;;;;1.47;1.47;;;;;;;6.75;100.00;101510.84;5038613;28;20533;-57
2022/10/07 00:38:50;;;;;;;0.60;0.43;;;;;;;6.75;100.00;101506.44;5043617;28;20448;-54
2022/10/07 00:41:20;;;;;;;6.13;0.57;;;;;;;6.69;100.00;101498.47;5043448;28;20512;-54
2022/10/07 00:43:46;;;;;;;1.37;1.27;;;;;;;6.81;100.00;101506.47;5024864;28;20509;-55
2022/10/07 00:46:35;;;;;;;30.43;1.10;;;;;;;6.60;100.00;101495.78;5036751;28;20535;-54
2022/10/07 00:49:07;;;;;;;12.03;1.37;;;;;;;6.75;100.00;101490.59;5039661;28;20454;-54
2022/10/07 00:51:35;;;;;;;2.80;1.00;;;;;;;6.74;100.00;101491.47;5042904;28;21011;-55
2022/10/07 00:54:05;;;;;;;0.43;0.40;;;;;;;6.62;100.00;101487.84;5034422;28;20514;-54
2022/10/07 00:56:33;;;;;;;0.40;0.30;;;;;;;6.79;100.00;101491.47;5043360;28;20514;-54
2022/10/07 00:59:00;;;;;;;0.40;0.30;;;;;;;6.75;100.00;101480.03;5042813;28;20939;-55
2022/10/07 01:01:27;;;;;;;1.23;0.70;;;;;;;6.65;100.00;101478.19;5036214;28;20450;-55
2022/10/07 01:03:53;;;;;;;0.40;0.30;;;;;;;6.54;100.00;101471.94;5037167;28;20448;-54
2022/10/07 01:06:20;;;;;;;0.40;0.30;;;;;;;6.56;100.00;101478.13;5043750;28;20478;-55
2022/10/07 01:08:49;;;;;;;5.03;1.17;;;;;;;6.67;100.00;101480.84;5037366;28;20452;-55
2022/10/07 01:11:40;;;;;;;1.60;0.70;;;;;;;6.49;100.00;101471.03;5043313;28;20498;-55
2022/10/07 01:14:14;;;;;;;0.57;0.50;;;;;;;6.50;100.00;101472.81;5029477;28;20549;-55
2022/10/07 01:16:59;;;;;;;0.40;0.30;;;;;;;6.51;100.00;101470.16;5039090;28;20498;-55
2022/10/07 01:20:10;;;;;;;0.40;0.30;;;;;;;6.53;100.00;101478.97;5044380;28;20459;-54
2022/10/07 01:22:58;;;;;;;0.40;0.30;;;;;;;6.47;100.00;101472.78;5036436;28;20466;-55
2022/10/07 01:25:33;;;;;;;0.40;0.33;;;;;;;6.46;100.00;101471.03;5043239;28;20451;-55
2022/10/07 01:28:06;;;;;;;0.70;0.60;;;;;;;6.22;100.00;101467.31;5031023;28;20455;-56
2022/10/07 01:30:40;;;;;;;1.80;0.70;;;;;;;6.23;100.00;101463.78;5038695;28;20537;-55
2022/10/07 01:33:13;;;;;;;0.80;0.80;;;;;;;6.28;100.00;101458.53;5037900;28;20533;-56
2022/10/07 01:35:43;;;;;;;0.93;0.57;;;;;;;6.43;100.00;101461.28;5042920;28;20522;-55
2022/10/07 01:38:12;;;;;;;1.80;0.40;;;;;;;6.54;100.00;101456.09;5042949;28;20447;-55
2022/10/07 01:40:46;;;;;;;0.70;0.63;;;;;;;6.64;100.00;101463.22;5042218;28;20953;-55
2022/10/07 01:43:16;;;;;;;0.80;0.80;;;;;;;6.66;100.00;101455.28;5038088;28;21081;-57
2022/10/07 01:45:42;;;;;;;0.80;0.70;;;;;;;6.67;100.00;101446.50;5040236;28;20452;-55
2022/10/07 01:48:09;;;;;;;4.23;0.50;;;;;;;6.62;100.00;101451.75;5036859;28;20459;-55
2022/10/07 01:50:38;;;;;;;0.87;0.87;;;;;;;6.56;100.00;101438.50;5040224;28;20455;-56
2022/10/07 01:53:26;;;;;;;0.60;0.40;;;;;;;6.59;100.00;101438.53;5042198;28;20455;-55
2022/10/07 01:56:11;;;;;;;0.60;0.60;;;;;;;6.80;100.00;101435.13;5029994;28;20894;-55
2022/10/07 01:59:09;;;;;;;0.50;0.50;;;;;;;6.88;100.00;101436.06;5037826;28;20446;-56
2022/10/07 02:01:39;;;;;;;0.40;0.27;;;;;;;6.83;100.00;101436.00;5034768;28;20459;-56
2022/10/07 02:04:30;;;;;;;4.10;0.60;;;;;;;6.74;100.00;101428.06;5035559;28;20452;-55
2022/10/07 02:07:14;;;;;;;0.63;0.63;;;;;;;6.82;100.00;101425.44;5028861;28;20493;-56
2022/10/07 02:09:49;;;;;;;0.53;0.53;;;;;;;6.79;100.00;101421.03;5035465;28;20815;-55
2022/10/07 02:12:27;;;;;;;0.40;0.30;;;;;;;6.83;100.00;101420.16;5035016;28;20447;-55
2022/10/07 02:15:04;;;;;;;0.43;0.40;;;;;;;6.72;100.00;101413.97;5037917;28;21007;-56
2022/10/07 02:17:36;;;;;;;0.40;0.37;;;;;;;6.69;100.00;101413.91;5035200;28;20902;-55
2022/10/07 02:20:07;;;;;;;2.70;0.47;;;;;;;6.71;100.00;101417.44;5037446;28;20941;-55
2022/10/07 02:22:35;;;;;;;3.33;1.40;;;;;;;6.69;100.00;101407.75;5042049;28;21012;-55
2022/10/07 02:25:02;;;;;;;1.80;0.50;;;;;;;6.77;100.00;101401.63;5041254;28;20446;-55
2022/10/07 02:27:35;;;;;;;10.57;1.20;;;;;;;6.88;100.00;101403.47;5035182;28;20475;-55
2022/10/07 02:30:08;;;;;;;0.93;0.87;;;;;;;6.89;100.00;101405.22;5035443;28;20455;-56
2022/10/07 02:32:38;;;;;;;0.43;0.40;;;;;;;6.81;100.00;101391.97;5039607;28;20458;-55
2022/10/07 02:35:16;;;;;;;1.20;1.10;;;;;;;6.75;100.00;101398.13;5035268;28;20549;-55
2022/10/07 02:37:46;;;;;;;2.43;0.77;;;;;;;6.71;100.00;101392.78;5038124;28;20483;-55
2022/10/07 02:40:13;;;;;;;0.30;0.20;;;;;;;6.67;100.00;101383.97;5033429;28;20465;-55
2022/10/07 02:42:49;;;;;;;1.07;0.77;;;;;;;6.58;100.00;101391.88;5037263;28;20460;-55
2022/10/07 02:45:25;;;;;;;1.83;0.40;;;;;;;6.68;100.00;101388.38;5041861;28;20931;-55
2022/10/07 02:48:03;;;;;;;0.40;0.27;;;;;;;6.60;100.00;101386.59;5030732;28;20557;-55
2022/10/07 02:50:36;;;;;;;0.53;0.50;;;;;;;6.64;100.00;101385.72;5039538;28;20451;-55
2022/10/07 02:53:04;;;;;;;18.83;0.60;;;;;;;6.53;100.00;101377.72;5041846;28;20456;-55
2022/10/07 02:55:31;;;;;;;0.50;0.43;;;;;;;6.33;100.00;101380.28;5039281;28;20560;-55
2022/10/07 02:58:02;;;;;;;4.80;0.47;;;;;;;6.26;100.00;101380.22;5031395;28;20459;-55
2022/10/07 03:00:31;;;;;;;1.80;1.70;;;;;;;6.48;100.00;101382.13;5040155;28;20505;-55
2022/10/07 03:03:02;;;;;;;1.07;0.77;;;;;;;6.46;100.00;101376.84;5034878;28;20504;-55
2022/10/07 03:05:28;;;;;;;0.50;0.40;;;;;;;6.38;100.00;101375.00;5036287;28;20451;-55
2022/10/07 03:07:59;;;;;;;0.60;0.57;;;;;;;6.41;100.00;101373.25;5046723;28;20900;-55
2022/10/07 03:10:27;;;;;;;0.30;0.20;;;;;;;6.33;100.00;101374.09;5035497;28;20455;-55
2022/10/07 03:12:54;;;;;;;0.40;0.37;;;;;;;6.43;100.00;101376.78;5038423;28;20448;-57
2022/10/07 03:15:21;;;;;;;12.10;1.63;;;;;;;6.41;100.00;101377.66;5038768;28;20487;-55
2022/10/07 03:17:48;;;;;;;10.10;1.40;;;;;;;6.48;100.00;101375.06;5045510;28;20524;-55
2022/10/07 03:20:15;;;;;;;0.70;0.53;;;;;;;6.53;100.00;101372.44;5032211;28;20455;-55
2022/10/07 03:22:45;;;;;;;6.80;0.57;;;;;;;6.71;100.00;101374.28;5044867;28;20452;-55
2022/10/07 03:25:12;;;;;;;0.63;0.63;;;;;;;6.69;100.00;101376.03;5045060;28;20446;-55
2022/10/07 03:27:41;;;;;;;0.50;0.47;;;;;;;6.57;100.00;101365.41;5036327;28;20470;-55
2022/10/07 03:30:09;;;;;;;0.40;0.40;;;;;;;6.59;100.00;101361.06;5044997;28;20800;-55
2022/10/07 03:32:37;;;;;;;0.60;0.50;;;;;;;6.48;100.00;101358.34;5040741;28;20458;-55
2022/10/07 03:35:04;;;;;;;0.83;0.30;;;;;;;6.43;100.00;101360.06;5039841;28;20500;-55
2022/10/07 03:37:30;;;;;;;0.40;0.30;;;;;;;6.60;100.00;101352.25;5042063;28;20498;-55
2022/10/07 03:39:57;;;;;;;0.40;0.30;;;;;;;6.43;100.00;101352.13;5044856;28;20451;-55
2022/10/07 03:42:23;;;;;;;0.40;0.30;;;;;;;6.28;100.00;101354.69;5040906;28;20462;-55
2022/10/07 03:44:50;;;;;;;0.77;0.77;;;;;;;6.20;100.00;101347.63;5037892;28;20459;-55
2022/10/07 03:47:16;;;;;;;0.77;0.40;;;;;;;6.29;100.00;101353.81;5041709;28;20471;-55
2022/10/07 03:49:43;;;;;;;0.50;0.40;;;;;;;6.32;100.00;101357.38;5042589;28;20454;-57
2022/10/07 03:52:10;;;;;;;0.50;0.50;;;;;;;6.24;100.00;101352.03;5041588;28;20452;-55
2022/10/07 03:54:36;;;;;;;0.80;0.80;;;;;;;6.17;100.00;101352.91;5044272;28;20522;-55
2022/10/07 03:57:48;;;;;;;0.43;0.37;;;;;;;6.05;100.00;101362.47;5041602;28;20487;-55
2022/10/07 03:59:52;;;;;;;0.40;0.30;;;;;;;6.08;100.00;101355.47;5044666;28;20884;-56
2022/10/07 04:02:20;;;;;;;0.77;0.50;;;;;;;6.03;100.00;101344.00;5044258;28;20458;-55
2022/10/07 04:04:46;;;;;;;0.30;0.20;;;;;;;6.06;100.00;101344.00;5038415;28;20451;-56
2022/10/07 04:07:13;;;;;;;1.53;0.50;;;;;;;6.23;100.00;101346.75;5035958;28;20525;-55
2022/10/07 04:09:39;;;;;;;0.57;0.50;;;;;;;6.11;100.00;101342.28;5043911;28;20486;-55
2022/10/07 04:12:06;;;;;;;0.70;0.60;;;;;;;6.11;100.00;101337.00;5033949;28;20518;-56
2022/10/07 04:14:32;;;;;;;0.40;0.40;;;;;;;6.05;100.00;101339.63;5036135;28;20960;-55
2022/10/07 04:16:58;;;;;;;1.87;0.53;;;;;;;5.94;100.00;101343.94;5037462;28;20528;-55
2022/10/07 04:19:25;;;;;;;0.30;0.20;;;;;;;5.87;100.00;101332.38;5050645;28;20501;-55
2022/10/07 04:21:51;;;;;;;0.40;0.30;;;;;;;5.99;100.00;101336.03;5037462;28;20463;-55
2022/10/07 04:24:18;;;;;;;0.50;0.40;;;;;;;5.95;100.00;101340.41;5032807;28;20455;-55
2022/10/07 04:26:44;;;;;;;0.40;0.30;;;;;;;5.85;100.00;101334.13;5036977;28;20529;-55
2022/10/07 04:29:10;;;;;;;0.80;0.50;;;;;;;5.77;100.00;101334.97;5046605;28;20561;-55
2022/10/07 04:31:37;;;;;;;0.40;0.20;;;;;;;5.76;100.00;101328.81;5036310;28;20459;-55
2022/10/07 04:34:03;;;;;;;0.60;0.50;;;;;;;5.68;100.00;101329.63;5034467;28;20491;-55
2022/10/07 04:36:30;;;;;;;1.53;0.87;;;;;;;5.59;100.00;101328.66;5030226;28;20547;-54
2022/10/07 04:38:56;;;;;;;1.20;0.43;;;;;;;5.74;100.00;101321.72;5042493;28;20459;-55
2022/10/07 04:41:22;;;;;;;0.50;0.50;;;;;;;5.75;100.00;101327.03;5039730;28;20463;-55
2022/10/07 04:43:50;;;;;;;0.40;0.30;;;;;;;5.86;100.00;101324.47;5037511;28;20801;-55
2022/10/07 04:46:22;;;;;;;8.03;1.70;;;;;;;5.85;100.00;101322.69;5045561;28;20996;-55
2022/10/07 04:48:49;;;;;;;1.57;1.47;;;;;;;5.75;100.00;101320.88;5034648;28;20444;-55
2022/10/07 04:51:15;;;;;;;0.40;0.30;;;;;;;5.88;100.00;101314.81;5043801;28;20509;-54
2022/10/07 04:53:42;;;;;;;0.83;0.50;;;;;;;5.87;100.00;101313.03;5038875;28;21046;-55
2022/10/07 04:56:09;;;;;;;2.87;1.47;;;;;;;5.75;100.00;101312.94;5036455;28;20503;-55
2022/10/07 04:58:36;;;;;;;5.50;0.40;;;;;;;5.88;100.00;101314.81;5026880;28;20537;-55
2022/10/07 05:01:08;;;;;;;1.13;0.37;;;;;;;5.86;100.00;101316.56;5039940;28;20447;-55
2022/10/07 05:03:37;;;;;;;1.90;1.80;;;;;;;5.75;100.00;101323.50;5042579;28;20455;-56
2022/10/07 05:06:05;;;;;;;0.50;0.50;;;;;;;5.76;100.00;101312.09;5033748;28;20475;-55
2022/10/07 05:08:32;;;;;;;0.43;0.30;;;;;;;5.75;100.00;101316.47;5036111;28;20464;-55
2022/10/07 05:11:00;;;;;;;0.50;0.43;;;;;;;5.63;100.00;101309.38;5042663;28;20957;-56
2022/10/07 05:13:27;;;;;;;1.53;0.50;;;;;;;5.55;100.00;101305.78;5031172;28;20976;-55
2022/10/07 05:15:57;;;;;;;1.23;1.13;;;;;;;5.67;100.00;101307.63;5035654;28;20491;-55
2022/10/07 05:18:25;;;;;;;0.40;0.30;;;;;;;5.74;100.00;101304.16;5039711;28;20949;-55
2022/10/07 05:20:52;;;;;;;0.60;0.60;;;;;;;5.64;100.00;101303.22;5043353;28;20965;-56
2022/10/07 05:23:23;;;;;;;0.47;0.40;;;;;;;5.56;100.00;101297.00;5030516;28;21026;-56
2022/10/07 05:25:58;;;;;;;0.90;0.90;;;;;;;5.57;100.00;101309.31;5043667;28;20474;-56
2022/10/07 05:28:25;;;;;;;0.43;0.27;;;;;;;5.68;100.00;101301.47;5040503;28;20567;-56
2022/10/07 05:31:12;;;;;;;0.40;0.40;;;;;;;5.68;100.00;101305.88;5045266;28;20470;-56
2022/10/07 05:33:39;;;;;;;1.23;0.30;;;;;;;5.72;100.00;101305.03;5029842;28;20448;-54
2022/10/07 05:36:07;;;;;;;0.60;0.53;;;;;;;5.44;100.00;101283.69;5029022;28;20495;-55
2022/10/07 05:38:35;;;;;;;1.13;0.97;;;;;;;5.48;100.00;101296.06;5036006;28;20443;-55
2022/10/07 05:41:04;;;;;;;0.40;0.30;;;;;;;5.56;100.00;101293.47;5033929;28;20468;-55
2022/10/07 05:43:34;;;;;;;0.30;0.20;;;;;;;5.62;100.00;101296.19;5040183;28;20813;-54
2022/10/07 05:46:03;;;;;;;5.13;1.17;;;;;;;5.58;100.00;101292.59;5044763;28;20470;-55
2022/10/07 05:48:31;;;;;;;2.33;0.73;;;;;;;5.55;100.00;101289.94;5043452;28;20833;-55
2022/10/07 05:51:05;;;;;;;0.40;0.30;;;;;;;5.68;100.00;101282.13;5029208;28;20961;-56
2022/10/07 05:53:31;;;;;;;0.30;0.20;;;;;;;5.53;100.00;101289.06;5033416;28;20550;-54
2022/10/07 05:55:57;;;;;;;0.40;0.30;;;;;;;5.58;100.00;101292.59;5035214;28;20499;-54
2022/10/07 05:58:24;;;;;;;0.40;0.40;;;;;;;5.61;100.00;101289.09;5042124;28;20455;-55
2022/10/07 06:00:56;;;;;;;0.97;0.87;;;;;;;5.46;100.00;101286.34;5041089;28;20475;-54
2022/10/07 06:03:29;;;;;;;1.53;0.20;;;;;;;5.59;100.00;101278.53;5035646;28;20458;-56
2022/10/07 06:05:55;;;;;;;0.40;0.30;;;;;;;5.74;100.00;101283.06;5034769;28;20530;-55
2022/10/07 06:08:22;;;;;;;5.73;0.60;;;;;;;5.59;100.00;101283.81;5042819;28;21134;-54
2022/10/07 06:13:34;;;;;;;3.40;0.70;;;;;;;5.70;100.00;101281.28;5038074;28;20501;-54
2022/10/07 06:16:05;;;;;;;2.00;1.13;;;;;;;5.77;100.00;101279.56;5038544;28;20512;-55
2022/10/07 06:18:35;;;;;;;0.50;0.40;;;;;;;5.99;100.00;101285.91;5042043;28;20464;-54
2022/10/07 06:21:01;;;;;;;0.93;0.50;;;;;;;5.92;100.00;101285.88;5042568;28;21094;-54
2022/10/07 06:23:29;;;;;;;2.03;1.93;;;;;;;5.99;100.00;101280.63;5041817;28;20463;-55
2022/10/07 06:25:57;;;;;;;0.47;0.37;;;;;;;6.11;100.00;101278.94;5035055;28;20478;-54
2022/10/07 06:28:24;;;;;;;0.40;0.30;;;;;;;6.14;100.00;101281.56;5035465;28;20508;-55
2022/10/07 06:30:51;;;;;;;0.40;0.20;;;;;;;6.18;100.00;101280.75;5046417;28;20956;-55
2022/10/07 06:33:18;;;;;;;1.03;1.03;;;;;;;6.26;100.00;101285.16;5034036;28;21110;-55
2022/10/07 06:35:45;;;;;;;0.93;0.67;;;;;;;6.35;100.00;101278.19;5031290;28;20867;-55
2022/10/07 06:38:11;;;;;;;0.50;0.33;;;;;;;6.45;100.00;101279.13;5035527;28;20483;-56
2022/10/07 06:40:38;;;;;;;0.40;0.27;;;;;;;6.60;100.00;101279.16;5036866;28;20505;-55
2022/10/07 06:43:05;;;;;;;0.90;0.30;;;;;;;6.62;100.00;101282.69;5028247;28;20841;-55
2022/10/07 06:45:32;;;;;;;33.43;2.20;;;;;;;6.77;100.00;101282.75;5035517;28;20455;-55
2022/10/07 06:47:59;;;;;;;0.50;0.30;;;;;;;6.86;100.00;101273.09;5040964;28;20470;-55
2022/10/07 06:50:25;;;;;;;4.20;1.33;;;;;;;6.93;100.00;101281.00;5044492;28;20529;-55
2022/10/07 06:52:52;;;;;;;0.40;0.40;;;;;;;7.01;100.00;101281.03;5045861;28;20455;-55
2022/10/07 06:55:18;;;;;;;1.37;0.70;;;;;;;7.13;100.00;101281.94;5040183;28;20486;-55
2022/10/07 06:57:44;;;;;;;1.43;0.40;;;;;;;7.08;100.00;101282.81;5049049;28;21057;-55
2022/10/07 07:00:13;;;;;;;9.03;1.00;;;;;;;7.09;100.00;101284.56;5040020;28;20983;-56
2022/10/07 07:02:39;;;;;;;5.20;0.53;;;;;;;7.25;100.00;101281.06;5038980;28;20458;-56
2022/10/07 07:05:07;;;;;;;2.73;0.93;;;;;;;7.30;100.00;101279.31;5034876;28;20448;-52
2022/10/07 07:07:34;;;;;;;0.43;0.43;;;;;;;7.30;100.00;101279.31;5037420;28;20475;-54
2022/10/07 07:10:00;;;;;;;1.03;0.40;;;;;;;7.51;100.00;101280.19;5037102;28;20521;-54
2022/10/07 07:12:26;;;;;;;0.87;0.70;;;;;;;7.64;100.00;101284.59;5036147;28;20507;-54
2022/10/07 07:14:53;;;;;;;0.50;0.40;;;;;;;7.67;100.00;101281.94;5041170;28;20907;-54
2022/10/07 07:17:19;;;;;;;0.53;0.50;;;;;;;7.79;100.00;101278.41;5038283;28;20476;-54
2022/10/07 07:19:46;;;;;;;2.27;0.90;;;;;;;7.90;100.00;101274.88;5037765;28;20486;-56
2022/10/07 07:22:12;;;;;;;1.67;0.97;;;;;;;7.95;100.00;101270.47;5043368;28;20455;-55
2022/10/07 07:24:39;;;;;;;3.43;0.80;;;;;;;8.02;100.00;101272.19;5048982;28;20456;-56
2022/10/07 07:27:05;;;;;;;3.50;1.57;;;;;;;7.99;100.00;101272.22;5044679;28;20527;-55
2022/10/07 07:29:32;;;;;;;4.10;2.00;;;;;;;8.18;100.00;101264.19;5041016;28;20481;-55
2022/10/07 07:31:58;;;;;;;4.33;1.13;;;;;;;8.41;100.00;101258.88;5037494;28;20451;-54
2022/10/07 07:34:25;;;;;;;0.73;0.70;;;;;;;8.41;100.00;101267.69;5047815;28;20460;-55
2022/10/07 07:36:51;;;;;;;1.70;1.23;;;;;;;9.06;100.00;101265.59;5037676;28;20497;-56
2022/10/07 07:39:18;;;;;;;0.60;0.40;;;;;;;8.52;100.00;101260.59;5045726;28;20458;-55
2022/10/07 07:41:46;;;;;;;1.23;1.13;;;;;;;8.58;100.00;101262.31;5037019;28;20462;-56
2022/10/07 07:44:15;;;;;;;0.90;0.73;;;;;;;9.02;100.00;101264.72;5050399;28;21033;-55
2022/10/07 07:46:47;;;;;;;0.60;0.60;;;;;;;8.98;100.00;101260.31;5038110;28;20516;-55
2022/10/07 07:49:14;;;;;;;1.20;1.10;;;;;;;9.29;100.00;101258.31;5042011;28;20934;-55
2022/10/07 07:51:41;;;;;;;0.83;0.80;;;;;;;9.47;100.00;101250.25;5044282;28;20578;-55
2022/10/07 07:54:08;;;;;;;0.67;0.67;;;;;;;9.10;100.00;101252.28;5043083;28;20527;-55
2022/10/07 07:56:35;;;;;;;1.33;1.23;;;;;;;9.34;100.00;101259.19;5032187;28;20500;-55
2022/10/07 07:59:01;;;;;;;6.53;1.07;;;;;;;9.36;100.00;101246.78;5042697;28;20912;-55
2022/10/07 08:01:31;;;;;;;2.57;0.80;;;;;;;9.32;100.00;101249.47;5037727;28;20886;-56
2022/10/07 08:03:58;;;;;;;1.13;1.00;;;;;;;9.46;100.00;101239.63;5038045;28;20523;-56
2022/10/07 08:06:26;;;;;;;1.07;0.97;;;;;;;9.22;100.00;101245.13;5046982;28;20520;-56
2022/10/07 08:08:56;;;;;;;3.03;0.80;;;;;;;9.49;100.00;101242.25;5037410;28;20462;-55
2022/10/07 08:11:22;;;;;;;1.20;1.10;;;;;;;9.50;100.00;101239.59;5043615;28;20460;-56
2022/10/07 08:13:50;;;;;;;1.10;0.60;;;;;;;10.18;100.00;101238.91;5031412;28;20807;-55
2022/10/07 08:16:19;;;;;;;0.67;0.67;;;;;;;10.25;100.00;101229.97;5043511;28;20503;-55
2022/10/07 08:18:48;;;;;;;1.50;1.40;;;;;;;9.97;100.00;101235.56;5044776;28;20450;-55
2022/10/07 08:21:18;;;;;;;1.53;0.80;;;;;;;9.73;100.00;101233.16;5036123;28;20514;-56
2022/10/07 08:23:46;;;;;;;0.83;0.80;;;;;;;9.87;100.00;101241.91;5044211;28;20454;-57
2022/10/07 08:26:13;;;;;;;3.80;1.43;;;;;;;9.99;100.00;101230.25;5035265;28;20472;-56
2022/10/07 08:28:40;;;;;;;4.03;2.27;;;;;;;10.34;100.00;101229.88;5044556;28;20881;-55
2022/10/07 08:31:11;;;;;;;4.43;0.53;;;;;;;10.46;100.00;101226.19;5033841;28;20813;-55
2022/10/07 08:33:39;;;;;;;1.90;1.80;;;;;;;10.48;100.00;101224.38;5044249;28;20479;-55
2022/10/07 08:36:09;;;;;;;1.37;1.37;;;;;;;10.58;100.00;101223.38;5040385;28;20989;-56
2022/10/07 08:38:38;;;;;;;4.40;1.13;;;;;;;10.49;100.00;101215.50;5037278;28;20450;-54
2022/10/07 08:41:08;;;;;;;1.63;1.33;;;;;;;10.62;100.00;101217.97;5038769;28;20513;-56
2022/10/07 08:43:43;;;;;;;0.90;0.87;;;;;;;10.80;100.00;101213.28;5046385;28;20455;-55
2022/10/07 08:46:19;;;;;;;14.13;1.77;;;;;;;10.92;99.58;101210.44;5043615;28;20528;-55
2022/10/07 08:48:57;;;;;;;1.47;1.17;;;;;;;11.12;98.73;101208.38;5025511;28;20562;-55
2022/10/07 08:51:33;;;;;;;0.63;0.63;;;;;;;11.24;98.98;101202.84;5036534;28;20483;-55
2022/10/07 08:53:59;;;;;;;1.13;1.03;;;;;;;11.47;98.46;101206.88;5039593;28;20450;-55
2022/10/07 08:56:28;;;;;;;1.33;1.07;;;;;;;11.63;97.51;101200.38;5043458;28;20521;-55
2022/10/07 08:59:08;;;;;;;3.57;1.80;;;;;;;11.86;97.89;101200.88;5034803;28;20459;-55
2022/10/07 09:01:44;;;;;;;9.73;1.23;;;;;;;11.76;96.97;101196.59;5043018;28;20953;-55
2022/10/07 09:04:32;;;;;;;10.03;1.03;;;;;;;11.88;96.79;101198.16;5028796;28;20470;-54
2022/10/07 09:07:10;;;;;;;4.73;0.93;;;;;;;11.87;97.57;101188.44;5038556;28;20472;-54
2022/10/07 09:09:42;;;;;;;2.13;1.60;;;;;;;12.19;96.76;101182.44;5032405;28;20475;-54
2022/10/07 09:12:16;;;;;;;1.43;1.33;;;;;;;12.26;95.72;101183.22;5036951;28;20786;-54
2022/10/07 09:14:46;;;;;;;1.70;1.60;;;;;;;12.78;94.07;101168.72;5032570;28;20900;-54
2022/10/07 09:17:17;;;;;;;1.73;1.37;;;;;;;12.55;94.72;101171.91;5035467;28;20491;-54
2022/10/07 09:19:51;;;;;;;1.77;0.73;;;;;;;12.29;94.62;101167.13;5049114;28;20458;-54
2022/10/07 09:22:20;;;;;;;2.23;0.70;;;;;;;12.43;94.16;101159.72;5045644;28;20454;-54
2022/10/07 09:24:48;;;;;;;5.10;2.60;;;;;;;12.83;93.98;101153.47;5036255;28;20456;-54
2022/10/07 09:27:18;;;;;;;3.03;0.50;;;;;;;13.16;93.34;101155.31;5041996;28;21102;-54
2022/10/07 09:29:46;;;;;;;3.50;0.73;;;;;;;13.09;93.25;101152.84;5030059;28;20459;-54
2022/10/07 09:32:16;;;;;;;20.87;1.90;;;;;;;13.12;92.88;101147.41;5035978;28;20917;-55
2022/10/07 09:34:42;;;;;;;8.30;2.43;;;;;;;13.11;93.56;101151.00;5034191;28;20530;-54
2022/10/07 09:37:15;;;;;;;6.37;1.50;;;;;;;13.10;92.95;101150.13;5035645;28;20505;-54
2022/10/07 09:39:43;;;;;;;1.90;1.37;;;;;;;13.57;92.78;101143.59;5035917;28;20501;-54
2022/10/07 09:42:36;;;;;;;1.73;1.03;;;;;;;13.25;91.74;101149.75;5042036;28;20474;-54
2022/10/07 09:45:18;;;;;;;3.40;0.80;;;;;;;13.36;91.59;101136.13;5042141;28;20455;-54
2022/10/07 09:47:50;;;;;;;2.00;1.03;;;;;;;13.42;91.72;101135.09;5027445;28;20467;-56
2022/10/07 09:50:43;;;;;;;7.23;0.73;;;;;;;13.54;89.41;101134.75;5030712;28;20455;-54
2022/10/07 09:53:24;;;;;;;3.03;0.90;;;;;;;13.59;89.39;101125.72;5030080;28;20466;-54
2022/10/07 09:55:53;;;;;;;1.83;1.10;;;;;;;13.54;90.39;101129.41;5025085;28;20495;-55
2022/10/07 09:58:28;;;;;;;10.80;1.70;;;;;;;13.76;90.55;101125.25;5042538;28;20451;-53
2022/10/07 10:01:00;;;;;;;2.20;2.10;;;;;;;14.28;88.69;101126.41;5041756;28;20481;-54
2022/10/07 10:03:35;;;;;;;14.33;0.87;;;;;;;14.40;87.81;101123.34;5033333;28;20590;-54
2022/10/07 10:06:05;;;;;;;5.90;0.87;;;;;;;14.27;87.71;101113.06;5034850;28;20474;-53
2022/10/07 10:08:35;;;;;;;9.10;0.90;;;;;;;14.71;86.77;101125.09;5028778;28;20518;-53
2022/10/07 10:11:19;;;;;;;0.73;0.57;;;;;;;14.50;86.05;101116.78;5042365;28;20544;-54
2022/10/07 10:13:48;;;;;;;7.50;0.70;;;;;;;14.69;86.13;101113.56;5030185;28;20510;-53
2022/10/07 10:16:24;;;;;;;6.00;1.47;;;;;;;14.90;85.62;101118.19;5033086;28;20498;-53
2022/10/07 10:19:15;;;;;;;9.43;2.00;;;;;;;14.78;84.82;101110.56;5035046;28;20521;-53
2022/10/07 10:21:42;;;;;;;6.07;2.20;;;;;;;15.38;82.71;101110.31;5037944;28;20460;-53
2022/10/07 10:24:13;;;;;;;1.23;1.07;;;;;;;15.18;83.00;101101.19;5047939;28;20522;-53
2022/10/07 10:27:02;;;;;;;10.90;1.20;;;;;;;15.34;82.11;101092.56;5038523;28;20475;-54
2022/10/07 10:30:06;;;;;;;1.43;0.90;;;;;;;15.60;82.63;101088.97;5033638;28;20529;-54
2022/10/07 10:32:48;;;;;;;1.00;0.60;;;;;;;15.52;81.79;101079.47;4968136;28;20460;-53
2022/10/07 10:35:28;;;;;;;6.13;1.13;;;;;;;15.76;81.17;101070.56;5035938;28;20448;-53
2022/10/07 10:38:13;;;;;;;0.60;0.30;;;;;;;15.88;80.18;101063.81;5043049;28;20469;-54
2022/10/07 10:40:46;;;;;;;1.10;1.03;;;;;;;15.98;79.66;101062.56;5030863;28;20501;-54
2022/10/07 10:43:34;;;;;;;0.70;0.40;;;;;;;16.02;79.23;101058.81;5044649;28;20509;-54
2022/10/07 10:46:06;;;;;;;5.93;0.50;;;;;;;16.25;78.13;101050.75;5043561;28;20475;-53
2022/10/07 10:48:41;;;;;;;7.20;1.57;;;;;;;16.52;76.33;101047.88;5037117;28;20443;-53
2022/10/07 10:51:30;;;;;;;0.53;0.43;;;;;;;16.49;76.72;101051.56;5036936;28;20450;-53
2022/10/07 10:54:13;;;;;;;11.40;1.67;;;;;;;16.25;78.76;101040.00;5045177;28;20457;-54
2022/10/07 10:56:52;;;;;;;7.23;0.80;;;;;;;16.21;77.16;101046.44;5047903;28;20506;-53
2022/10/07 11:00:00;;;;;;;7.77;1.13;;;;;;;16.51;76.83;101038.09;5038599;28;20794;-54
2022/10/07 11:02:42;;;;;;;1.20;1.10;;;;;;;16.62;75.01;101034.97;5024735;28;20432;-54
2022/10/07 11:05:22;;;;;;;0.80;0.77;;;;;;;16.47;75.07;101036.47;5046130;28;20451;-53
2022/10/07 11:08:15;;;;;;;0.70;0.40;;;;;;;16.70;73.31;101024.78;5037896;28;20466;-53
2022/10/07 11:10:54;;;;;;;2.27;0.40;;;;;;;16.58;72.55;101029.72;5040005;28;20451;-53
2022/10/07 11:13:42;;;;;;;0.80;0.60;;;;;;;16.76;72.48;101019.19;5039893;28;20454;-54
2022/10/07 11:16:35;;;;;;;0.80;0.53;;;;;;;16.95;70.52;101013.88;5047615;28;21043;-54
2022/10/07 11:19:11;;;;;;;1.00;0.50;;;;;;;16.63;69.74;101016.09;5037781;28;20466;-53
2022/10/07 11:21:47;;;;;;;2.23;0.80;;;;;;;16.57;70.40;101002.94;5043045;28;20967;-53
2022/10/07 11:24:39;;;;;;;2.30;0.63;;;;;;;16.88;68.79;101002.56;5048029;28;20941;-53
2022/10/07 11:27:17;;;;;;;0.60;0.50;;;;;;;16.78;70.58;100996.69;5048062;28;20468;-54
2022/10/07 11:29:56;;;;;;;1.53;0.50;;;;;;;17.15;68.98;100992.41;5043062;28;20594;-54
2022/10/07 11:32:43;;;;;;;6.67;1.00;;;;;;;17.20;69.30;100982.31;5028051;28;20956;-53
2022/10/07 11:35:22;;;;;;;3.03;2.73;;;;;;;17.15;68.95;100982.53;5044894;28;20455;-54
2022/10/07 11:38:07;;;;;;;1.70;0.80;;;;;;;17.24;69.12;100973.16;5042979;28;20502;-54
2022/10/07 11:40:42;;;;;;;10.40;0.67;;;;;;;17.35;68.67;100970.00;5036865;28;20530;-53
2022/10/07 11:43:32;;;;;;;30.57;0.97;;;;;;;17.59;69.76;100966.19;5036228;28;20853;-54
2022/10/07 11:46:03;;;;;;;2.30;0.90;;;;;;;17.31;71.51;100961.22;5043130;28;20470;-54
2022/10/07 11:48:45;;;;;;;4.80;0.70;;;;;;;17.27;70.46;100953.34;5032118;28;20462;-54